sensor_id;sensor_type;location;lat;lon;timestamp;temperature;humidity
8436;DHT22;4255;48.730;9.156;2024-01-15T00:00:43;-0.70;1.00
8436;DHT22;4255;48.730;9.156;2024-01-15T00:03:09;-0.70;1.00
8436;DHT22;4255;48.730;9.156;2024-01-15T00:05:36;-0.70;1.00
8436;DHT22;4255;48.730;9.156;2024-01-15T00:08:01;-0.80;1.00
8436;DHT22;4255;48.730;9.156;2024-01-15T00:10:27;-0.70;1.00
8436;DHT22;4255;48.730;9.156;2024-01-15T00:12:52;-0.70;1.00
8436;DHT22;4255;48.730;9.156;2024-01-15T00:15:18;-0.60;1.00
8436;DHT22;4255;48.730;9.156;2024-01-15T00:17:43;-0.70;1.00
8436;DHT22;4255;48.730;9.156;2024-01-15T00:20:11;-0.60;1.00
8436;DHT22;4255;48.730;9.156;2024-01-15T00:22:37;-0.60;1.00
8436;DHT22;4255;48.730;9.156;2024-01-15T00:25:03;-0.60;1.00
8436;DHT22;4255;48.730;9.156;2024-01-15T00:27:28;-0.70;1.00
8436;DHT22;4255;48.730;9.156;2024-01-15T00:29:54;-0.90;1.00
8436;DHT22;4255;48.730;9.156;2024-01-15T00:32:20;-1.00;1.00
8436;DHT22;4255;48.730;9.156;2024-01-15T00:34:46;-1.00;1.00
8436;DHT22;4255;48.730;9.156;2024-01-15T00:37:12;-0.90;1.00
8436;DHT22;4255;48.730;9.156;2024-01-15T00:39:37;-0.90;1.00
8436;DHT22;4255;48.730;9.156;2024-01-15T00:42:03;-1.00;1.00
8436;DHT22;4255;48.730;9.156;2024-01-15T00:44:29;-1.00;1.00
8436;DHT22;4255;48.730;9.156;2024-01-15T00:46:54;-1.00;1.00
8436;DHT22;4255;48.730;9.156;2024-01-15T00:49:20;-0.90;1.00
8436;DHT22;4255;48.730;9.156;2024-01-15T00:51:46;-0.80;1.00
8436;DHT22;4255;48.730;9.156;2024-01-15T00:54:12;-0.90;1.00
8436;DHT22;4255;48.730;9.156;2024-01-15T00:56:38;-0.90;1.00
8436;DHT22;4255;48.730;9.156;2024-01-15T00:59:03;-0.90;1.00
8436;DHT22;4255;48.730;9.156;2024-01-15T01:01:29;-1.00;1.00
8436;DHT22;4255;48.730;9.156;2024-01-15T01:03:55;-1.00;1.00
8436;DHT22;4255;48.730;9.156;2024-01-15T01:06:20;-1.10;1.00
8436;DHT22;4255;48.730;9.156;2024-01-15T01:08:46;-1.00;1.00
8436;DHT22;4255;48.730;9.156;2024-01-15T01:11:15;-1.00;1.00
8436;DHT22;4255;48.730;9.156;2024-01-15T01:13:41;-0.90;1.00
8436;DHT22;4255;48.730;9.156;2024-01-15T01:16:07;-1.00;1.00
8436;DHT22;4255;48.730;9.156;2024-01-15T01:18:32;-1.00;10.20
8436;DHT22;4255;48.730;9.156;2024-01-15T01:20:58;-0.90;2.20
8436;DHT22;4255;48.730;9.156;2024-01-15T01:23:23;-0.80;1.10
8436;DHT22;4255;48.730;9.156;2024-01-15T01:25:49;-0.70;1.00
8436;DHT22;4255;48.730;9.156;2024-01-15T01:28:14;-0.80;1.00
8436;DHT22;4255;48.730;9.156;2024-01-15T01:30:40;-0.80;1.00
8436;DHT22;4255;48.730;9.156;2024-01-15T01:33:06;-0.70;1.00
8436;DHT22;4255;48.730;9.156;2024-01-15T01:35:31;-0.90;1.00
8436;DHT22;4255;48.730;9.156;2024-01-15T01:37:57;-0.70;1.00
8436;DHT22;4255;48.730;9.156;2024-01-15T01:40:22;-0.70;5.00
8436;DHT22;4255;48.730;9.156;2024-01-15T01:42:48;-0.60;1.00
8436;DHT22;4255;48.730;9.156;2024-01-15T01:45:14;-0.50;1.00
8436;DHT22;4255;48.730;9.156;2024-01-15T01:47:40;-0.50;1.00
8436;DHT22;4255;48.730;9.156;2024-01-15T01:50:06;-0.30;1.00
8436;DHT22;4255;48.730;9.156;2024-01-15T01:52:32;-0.20;1.00
8436;DHT22;4255;48.730;9.156;2024-01-15T01:55:00;-0.10;1.00
8436;DHT22;4255;48.730;9.156;2024-01-15T01:57:26;-0.10;1.00
8436;DHT22;4255;48.730;9.156;2024-01-15T01:59:53;-0.10;1.00
8436;DHT22;4255;48.730;9.156;2024-01-15T02:02:18;-0.10;1.00
8436;DHT22;4255;48.730;9.156;2024-01-15T02:04:47;-0.20;1.00
8436;DHT22;4255;48.730;9.156;2024-01-15T02:07:13;-0.30;1.00
8436;DHT22;4255;48.730;9.156;2024-01-15T02:09:39;-0.50;1.00
8436;DHT22;4255;48.730;9.156;2024-01-15T02:12:05;-0.50;1.00
8436;DHT22;4255;48.730;9.156;2024-01-15T02:14:31;-0.70;5.60
8436;DHT22;4255;48.730;9.156;2024-01-15T02:16:56;-0.60;2.90
8436;DHT22;4255;48.730;9.156;2024-01-15T02:19:22;-0.50;3.00
8436;DHT22;4255;48.730;9.156;2024-01-15T02:21:47;-0.60;5.00
8436;DHT22;4255;48.730;9.156;2024-01-15T02:24:13;-0.60;1.00
8436;DHT22;4255;48.730;9.156;2024-01-15T02:26:39;-0.60;2.90
8436;DHT22;4255;48.730;9.156;2024-01-15T02:29:08;-0.80;10.20
8436;DHT22;4255;48.730;9.156;2024-01-15T02:31:38;-0.80;14.20
8436;DHT22;4255;48.730;9.156;2024-01-15T02:34:04;-0.70;17.40
8436;DHT22;4255;48.730;9.156;2024-01-15T02:36:29;-0.70;8.30
8436;DHT22;4255;48.730;9.156;2024-01-15T02:38:55;-0.70;2.90
8436;DHT22;4255;48.730;9.156;2024-01-15T02:41:20;-0.70;10.30
8436;DHT22;4255;48.730;9.156;2024-01-15T02:43:46;-0.60;3.00
8436;DHT22;4255;48.730;9.156;2024-01-15T02:46:12;-0.70;2.90
8436;DHT22;4255;48.730;9.156;2024-01-15T02:48:37;-0.60;4.40
8436;DHT22;4255;48.730;9.156;2024-01-15T02:51:03;-0.60;4.50
8436;DHT22;4255;48.730;9.156;2024-01-15T02:53:29;-0.50;1.00
8436;DHT22;4255;48.730;9.156;2024-01-15T02:55:54;-0.50;1.00
8436;DHT22;4255;48.730;9.156;2024-01-15T02:58:20;-0.50;1.00
8436;DHT22;4255;48.730;9.156;2024-01-15T03:00:46;-0.70;1.70
8436;DHT22;4255;48.730;9.156;2024-01-15T03:03:12;-0.70;2.60
8436;DHT22;4255;48.730;9.156;2024-01-15T03:05:38;-0.70;10.00
8436;DHT22;4255;48.730;9.156;2024-01-15T03:08:03;-0.70;13.40
8436;DHT22;4255;48.730;9.156;2024-01-15T03:10:29;-0.60;14.90
8436;DHT22;4255;48.730;9.156;2024-01-15T03:12:55;-0.70;17.80
8436;DHT22;4255;48.730;9.156;2024-01-15T03:15:20;-0.70;12.40
8436;DHT22;4255;48.730;9.156;2024-01-15T03:17:46;-0.90;21.10
8436;DHT22;4255;48.730;9.156;2024-01-15T03:20:12;-0.90;30.30
8436;DHT22;4255;48.730;9.156;2024-01-15T03:22:38;-0.90;36.20
8436;DHT22;4255;48.730;9.156;2024-01-15T03:25:04;-0.90;37.00
8436;DHT22;4255;48.730;9.156;2024-01-15T03:27:30;-1.00;52.30
8436;DHT22;4255;48.730;9.156;2024-01-15T03:29:55;-1.00;85.30
8436;DHT22;4255;48.730;9.156;2024-01-15T03:32:21;-0.90;69.10
8436;DHT22;4255;48.730;9.156;2024-01-15T03:34:46;-0.90;57.30
8436;DHT22;4255;48.730;9.156;2024-01-15T03:37:13;-0.90;69.30
8436;DHT22;4255;48.730;9.156;2024-01-15T03:39:38;-1.00;78.10
8436;DHT22;4255;48.730;9.156;2024-01-15T03:42:04;-1.00;84.10
8436;DHT22;4255;48.730;9.156;2024-01-15T03:44:30;-1.00;93.00
8436;DHT22;4255;48.730;9.156;2024-01-15T03:46:55;-1.00;98.50
8436;DHT22;4255;48.730;9.156;2024-01-15T03:49:21;-1.00;91.80
8436;DHT22;4255;48.730;9.156;2024-01-15T03:51:46;-0.80;75.70
8436;DHT22;4255;48.730;9.156;2024-01-15T03:54:12;-0.80;79.80
8436;DHT22;4255;48.730;9.156;2024-01-15T03:56:38;-0.80;62.10
8436;DHT22;4255;48.730;9.156;2024-01-15T03:59:03;-0.60;54.40
8436;DHT22;4255;48.730;9.156;2024-01-15T04:01:29;-0.60;43.60
8436;DHT22;4255;48.730;9.156;2024-01-15T04:03:55;-0.70;41.30
8436;DHT22;4255;48.730;9.156;2024-01-15T04:06:20;-0.70;58.20
8436;DHT22;4255;48.730;9.156;2024-01-15T04:08:46;-0.60;38.60
8436;DHT22;4255;48.730;9.156;2024-01-15T04:11:12;-0.60;31.30
8436;DHT22;4255;48.730;9.156;2024-01-15T04:13:37;-0.40;20.70
8436;DHT22;4255;48.730;9.156;2024-01-15T04:16:03;-0.40;12.20
8436;DHT22;4255;48.730;9.156;2024-01-15T04:18:29;-0.40;22.90
8436;DHT22;4255;48.730;9.156;2024-01-15T04:20:54;-0.50;18.70
8436;DHT22;4255;48.730;9.156;2024-01-15T04:23:20;-0.40;17.60
8436;DHT22;4255;48.730;9.156;2024-01-15T04:25:46;-0.30;15.40
8436;DHT22;4255;48.730;9.156;2024-01-15T04:28:12;-0.40;16.00
8436;DHT22;4255;48.730;9.156;2024-01-15T04:30:37;-0.40;20.40
8436;DHT22;4255;48.730;9.156;2024-01-15T04:33:03;-0.30;14.50
8436;DHT22;4255;48.730;9.156;2024-01-15T04:35:30;-0.30;14.60
8436;DHT22;4255;48.730;9.156;2024-01-15T04:37:55;-0.30;21.50
8436;DHT22;4255;48.730;9.156;2024-01-15T04:40:21;-0.30;15.80
8436;DHT22;4255;48.730;9.156;2024-01-15T04:42:47;-0.30;14.20
8436;DHT22;4255;48.730;9.156;2024-01-15T04:45:12;-0.20;14.20
8436;DHT22;4255;48.730;9.156;2024-01-15T04:47:38;-0.20;3.10
8436;DHT22;4255;48.730;9.156;2024-01-15T04:50:04;-0.10;8.40
8436;DHT22;4255;48.730;9.156;2024-01-15T04:52:30;-0.10;1.00
8436;DHT22;4255;48.730;9.156;2024-01-15T04:54:55;-0.20;1.00
8436;DHT22;4255;48.730;9.156;2024-01-15T04:57:21;-0.10;1.00
8436;DHT22;4255;48.730;9.156;2024-01-15T04:59:47;0.00;1.00
8436;DHT22;4255;48.730;9.156;2024-01-15T05:02:12;0.10;1.00
8436;DHT22;4255;48.730;9.156;2024-01-15T05:04:38;0.20;1.00
8436;DHT22;4255;48.730;9.156;2024-01-15T05:07:03;0.10;1.00
8436;DHT22;4255;48.730;9.156;2024-01-15T05:09:29;0.10;1.00
8436;DHT22;4255;48.730;9.156;2024-01-15T05:11:54;0.10;1.00
8436;DHT22;4255;48.730;9.156;2024-01-15T05:14:20;0.10;35.90
8436;DHT22;4255;48.730;9.156;2024-01-15T05:16:49;0.20;33.30
8436;DHT22;4255;48.730;9.156;2024-01-15T05:19:15;0.10;7.20
8436;DHT22;4255;48.730;9.156;2024-01-15T05:21:41;0.10;8.80
8436;DHT22;4255;48.730;9.156;2024-01-15T05:24:08;0.00;10.10
8436;DHT22;4255;48.730;9.156;2024-01-15T05:26:33;0.10;14.40
8436;DHT22;4255;48.730;9.156;2024-01-15T05:28:59;0.10;19.90
8436;DHT22;4255;48.730;9.156;2024-01-15T05:31:25;0.10;24.80
8436;DHT22;4255;48.730;9.156;2024-01-15T05:33:50;0.20;17.70
8436;DHT22;4255;48.730;9.156;2024-01-15T05:36:16;0.10;14.00
8436;DHT22;4255;48.730;9.156;2024-01-15T05:38:41;0.10;18.20
8436;DHT22;4255;48.730;9.156;2024-01-15T05:41:07;0.10;19.90
8436;DHT22;4255;48.730;9.156;2024-01-15T05:43:33;0.10;15.10
8436;DHT22;4255;48.730;9.156;2024-01-15T05:45:58;0.20;9.40
8436;DHT22;4255;48.730;9.156;2024-01-15T05:48:24;0.20;1.00
8436;DHT22;4255;48.730;9.156;2024-01-15T05:50:49;0.20;2.50
8436;DHT22;4255;48.730;9.156;2024-01-15T05:53:15;0.20;1.00
8436;DHT22;4255;48.730;9.156;2024-01-15T05:55:40;0.20;2.10
8436;DHT22;4255;48.730;9.156;2024-01-15T05:58:06;0.30;1.00
8436;DHT22;4255;48.730;9.156;2024-01-15T06:00:32;0.30;11.40
8436;DHT22;4255;48.730;9.156;2024-01-15T06:03:01;0.30;12.70
8436;DHT22;4255;48.730;9.156;2024-01-15T06:05:27;0.40;10.80
8436;DHT22;4255;48.730;9.156;2024-01-15T06:07:52;0.40;1.00
8436;DHT22;4255;48.730;9.156;2024-01-15T06:10:18;0.50;1.00
8436;DHT22;4255;48.730;9.156;2024-01-15T06:12:44;0.50;1.00
8436;DHT22;4255;48.730;9.156;2024-01-15T06:15:09;0.60;1.00
8436;DHT22;4255;48.730;9.156;2024-01-15T06:17:35;0.50;1.00
8436;DHT22;4255;48.730;9.156;2024-01-15T06:20:01;0.30;5.50
8436;DHT22;4255;48.730;9.156;2024-01-15T06:22:28;0.30;10.90
8436;DHT22;4255;48.730;9.156;2024-01-15T06:24:54;0.40;16.20
8436;DHT22;4255;48.730;9.156;2024-01-15T06:27:21;0.40;10.20
8436;DHT22;4255;48.730;9.156;2024-01-15T06:29:46;0.30;12.50
8436;DHT22;4255;48.730;9.156;2024-01-15T06:32:15;0.20;25.60
8436;DHT22;4255;48.730;9.156;2024-01-15T06:34:40;0.30;24.90
8436;DHT22;4255;48.730;9.156;2024-01-15T06:37:06;0.30;16.70
8436;DHT22;4255;48.730;9.156;2024-01-15T06:39:32;0.30;9.90
8436;DHT22;4255;48.730;9.156;2024-01-15T06:41:58;0.10;12.00
8436;DHT22;4255;48.730;9.156;2024-01-15T06:44:23;-0.10;26.40
8436;DHT22;4255;48.730;9.156;2024-01-15T06:46:49;0.00;37.30
8436;DHT22;4255;48.730;9.156;2024-01-15T06:49:15;0.00;29.60
8436;DHT22;4255;48.730;9.156;2024-01-15T06:51:40;0.00;24.80
8436;DHT22;4255;48.730;9.156;2024-01-15T06:54:07;0.10;16.00
8436;DHT22;4255;48.730;9.156;2024-01-15T06:56:32;0.00;16.10
8436;DHT22;4255;48.730;9.156;2024-01-15T06:58:58;0.10;10.70
8436;DHT22;4255;48.730;9.156;2024-01-15T07:01:24;0.00;4.30
8436;DHT22;4255;48.730;9.156;2024-01-15T07:03:49;0.10;3.70
8436;DHT22;4255;48.730;9.156;2024-01-15T07:06:15;0.00;3.30
8436;DHT22;4255;48.730;9.156;2024-01-15T07:08:41;0.00;3.50
8436;DHT22;4255;48.730;9.156;2024-01-15T07:11:07;0.10;3.30
8436;DHT22;4255;48.730;9.156;2024-01-15T07:13:33;0.10;1.00
8436;DHT22;4255;48.730;9.156;2024-01-15T07:15:59;0.00;1.00
8436;DHT22;4255;48.730;9.156;2024-01-15T07:18:25;0.00;3.30
8436;DHT22;4255;48.730;9.156;2024-01-15T07:20:51;0.10;1.00
8436;DHT22;4255;48.730;9.156;2024-01-15T07:23:17;0.10;1.00
8436;DHT22;4255;48.730;9.156;2024-01-15T07:25:43;0.10;1.00
8436;DHT22;4255;48.730;9.156;2024-01-15T07:28:08;0.00;1.00
8436;DHT22;4255;48.730;9.156;2024-01-15T07:30:34;-0.10;3.20
8436;DHT22;4255;48.730;9.156;2024-01-15T07:33:00;-0.10;5.40
8436;DHT22;4255;48.730;9.156;2024-01-15T07:35:26;-0.10;1.60
8436;DHT22;4255;48.730;9.156;2024-01-15T07:37:52;0.00;1.00
8436;DHT22;4255;48.730;9.156;2024-01-15T07:40:17;0.00;1.00
8436;DHT22;4255;48.730;9.156;2024-01-15T07:42:43;0.00;1.00
8436;DHT22;4255;48.730;9.156;2024-01-15T07:45:10;0.00;1.00
8436;DHT22;4255;48.730;9.156;2024-01-15T07:47:35;0.10;1.00
8436;DHT22;4255;48.730;9.156;2024-01-15T07:50:01;0.20;1.00
8436;DHT22;4255;48.730;9.156;2024-01-15T07:52:27;0.30;1.00
8436;DHT22;4255;48.730;9.156;2024-01-15T07:54:52;0.20;1.00
8436;DHT22;4255;48.730;9.156;2024-01-15T07:57:18;0.30;1.00
8436;DHT22;4255;48.730;9.156;2024-01-15T07:59:43;0.20;1.00
8436;DHT22;4255;48.730;9.156;2024-01-15T08:02:09;0.20;1.00
8436;DHT22;4255;48.730;9.156;2024-01-15T08:04:37;0.30;1.00
8436;DHT22;4255;48.730;9.156;2024-01-15T08:07:03;0.30;1.00
8436;DHT22;4255;48.730;9.156;2024-01-15T08:09:28;0.40;1.00
8436;DHT22;4255;48.730;9.156;2024-01-15T08:11:54;0.30;1.00
8436;DHT22;4255;48.730;9.156;2024-01-15T08:14:20;0.30;1.00
8436;DHT22;4255;48.730;9.156;2024-01-15T08:16:46;0.20;1.00
8436;DHT22;4255;48.730;9.156;2024-01-15T08:19:11;0.30;1.00
8436;DHT22;4255;48.730;9.156;2024-01-15T08:21:37;0.30;1.00
8436;DHT22;4255;48.730;9.156;2024-01-15T08:24:02;0.50;1.00
8436;DHT22;4255;48.730;9.156;2024-01-15T08:26:29;0.50;1.00
8436;DHT22;4255;48.730;9.156;2024-01-15T08:28:54;0.60;1.00
8436;DHT22;4255;48.730;9.156;2024-01-15T08:31:20;0.60;1.00
8436;DHT22;4255;48.730;9.156;2024-01-15T08:33:46;0.80;1.00
8436;DHT22;4255;48.730;9.156;2024-01-15T08:36:12;0.90;1.00
8436;DHT22;4255;48.730;9.156;2024-01-15T08:38:38;0.90;1.00
8436;DHT22;4255;48.730;9.156;2024-01-15T08:41:04;1.00;1.00
8436;DHT22;4255;48.730;9.156;2024-01-15T08:43:29;1.20;1.00
8436;DHT22;4255;48.730;9.156;2024-01-15T08:45:56;1.20;1.00
8436;DHT22;4255;48.730;9.156;2024-01-15T08:48:22;1.20;1.00
8436;DHT22;4255;48.730;9.156;2024-01-15T08:50:48;1.10;99.90
8436;DHT22;4255;48.730;9.156;2024-01-15T08:53:14;1.10;99.90
8436;DHT22;4255;48.730;9.156;2024-01-15T08:55:40;1.10;99.90
8436;DHT22;4255;48.730;9.156;2024-01-15T08:58:08;1.10;99.90
8436;DHT22;4255;48.730;9.156;2024-01-15T09:00:34;1.10;99.90
8436;DHT22;4255;48.730;9.156;2024-01-15T09:02:59;1.10;99.90
8436;DHT22;4255;48.730;9.156;2024-01-15T09:05:25;1.00;99.90
8436;DHT22;4255;48.730;9.156;2024-01-15T09:07:51;1.00;69.20
8436;DHT22;4255;48.730;9.156;2024-01-15T09:10:19;0.90;99.90
8436;DHT22;4255;48.730;9.156;2024-01-15T09:12:45;1.10;99.90
8436;DHT22;4255;48.730;9.156;2024-01-15T09:15:11;1.20;90.00
8436;DHT22;4255;48.730;9.156;2024-01-15T09:17:36;1.10;1.00
8436;DHT22;4255;48.730;9.156;2024-01-15T09:20:02;1.10;30.20
8436;DHT22;4255;48.730;9.156;2024-01-15T09:22:30;1.20;24.90
8436;DHT22;4255;48.730;9.156;2024-01-15T09:24:55;1.30;1.00
8436;DHT22;4255;48.730;9.156;2024-01-15T09:27:21;1.30;1.00
8436;DHT22;4255;48.730;9.156;2024-01-15T09:29:46;1.20;1.00
8436;DHT22;4255;48.730;9.156;2024-01-15T09:32:12;1.10;29.20
8436;DHT22;4255;48.730;9.156;2024-01-15T09:34:38;1.30;37.50
8436;DHT22;4255;48.730;9.156;2024-01-15T09:37:04;1.20;61.60
8436;DHT22;4255;48.730;9.156;2024-01-15T09:39:30;1.10;35.30
8436;DHT22;4255;48.730;9.156;2024-01-15T09:41:57;1.30;99.90
8436;DHT22;4255;48.730;9.156;2024-01-15T09:44:23;1.50;4.10
8436;DHT22;4255;48.730;9.156;2024-01-15T09:46:49;1.50;1.00
8436;DHT22;4255;48.730;9.156;2024-01-15T09:49:17;1.40;1.00
8436;DHT22;4255;48.730;9.156;2024-01-15T09:51:44;1.40;1.00
8436;DHT22;4255;48.730;9.156;2024-01-15T09:54:09;1.40;1.00
8436;DHT22;4255;48.730;9.156;2024-01-15T09:56:35;1.50;1.00
8436;DHT22;4255;48.730;9.156;2024-01-15T09:59:01;1.50;1.00
8436;DHT22;4255;48.730;9.156;2024-01-15T10:01:28;1.40;1.00
8436;DHT22;4255;48.730;9.156;2024-01-15T10:03:54;1.40;1.00
8436;DHT22;4255;48.730;9.156;2024-01-15T10:06:21;1.50;1.00
8436;DHT22;4255;48.730;9.156;2024-01-15T10:08:51;1.60;99.90
8436;DHT22;4255;48.730;9.156;2024-01-15T10:11:16;1.40;99.90
8436;DHT22;4255;48.730;9.156;2024-01-15T10:13:48;1.40;99.90
8436;DHT22;4255;48.730;9.156;2024-01-15T10:16:21;1.50;1.00
8436;DHT22;4255;48.730;9.156;2024-01-15T10:18:47;1.50;1.00
8436;DHT22;4255;48.730;9.156;2024-01-15T10:21:13;1.40;1.00
8436;DHT22;4255;48.730;9.156;2024-01-15T10:23:39;1.40;1.00
8436;DHT22;4255;48.730;9.156;2024-01-15T10:26:05;1.30;1.00
8436;DHT22;4255;48.730;9.156;2024-01-15T10:28:31;1.30;1.00
8436;DHT22;4255;48.730;9.156;2024-01-15T10:30:58;1.40;1.00
8436;DHT22;4255;48.730;9.156;2024-01-15T10:33:25;1.50;1.00
8436;DHT22;4255;48.730;9.156;2024-01-15T10:35:54;1.40;1.00
8436;DHT22;4255;48.730;9.156;2024-01-15T10:38:21;1.40;1.00
8436;DHT22;4255;48.730;9.156;2024-01-15T10:40:50;1.40;88.90
8436;DHT22;4255;48.730;9.156;2024-01-15T10:43:16;1.50;99.90
8436;DHT22;4255;48.730;9.156;2024-01-15T10:45:51;1.60;85.00
8436;DHT22;4255;48.730;9.156;2024-01-15T10:48:17;1.30;99.90
8436;DHT22;4255;48.730;9.156;2024-01-15T10:50:44;1.40;99.90
8436;DHT22;4255;48.730;9.156;2024-01-15T10:53:11;1.40;99.90
8436;DHT22;4255;48.730;9.156;2024-01-15T10:55:38;1.40;99.90
8436;DHT22;4255;48.730;9.156;2024-01-15T10:58:04;1.50;99.90
8436;DHT22;4255;48.730;9.156;2024-01-15T11:00:30;1.50;99.90
8436;DHT22;4255;48.730;9.156;2024-01-15T11:02:56;1.50;99.90
8436;DHT22;4255;48.730;9.156;2024-01-15T11:05:22;1.70;99.90
8436;DHT22;4255;48.730;9.156;2024-01-15T11:07:49;1.70;99.90
8436;DHT22;4255;48.730;9.156;2024-01-15T11:10:41;1.60;99.90
8436;DHT22;4255;48.730;9.156;2024-01-15T11:13:14;1.70;99.90
8436;DHT22;4255;48.730;9.156;2024-01-15T11:16:03;1.70;99.90
8436;DHT22;4255;48.730;9.156;2024-01-15T11:18:40;1.70;1.00
8436;DHT22;4255;48.730;9.156;2024-01-15T11:23:45;1.70;1.00
8436;DHT22;4255;48.730;9.156;2024-01-15T11:26:46;1.70;1.00
8436;DHT22;4255;48.730;9.156;2024-01-15T11:31:56;1.80;1.00
8436;DHT22;4255;48.730;9.156;2024-01-15T11:34:51;1.60;1.00
8436;DHT22;4255;48.730;9.156;2024-01-15T11:37:18;1.40;1.00
8436;DHT22;4255;48.730;9.156;2024-01-15T11:39:44;1.40;1.00
8436;DHT22;4255;48.730;9.156;2024-01-15T11:42:11;1.50;1.00
8436;DHT22;4255;48.730;9.156;2024-01-15T11:44:37;1.50;1.00
8436;DHT22;4255;48.730;9.156;2024-01-15T11:47:08;1.50;1.00
8436;DHT22;4255;48.730;9.156;2024-01-15T11:52:05;1.60;1.00
8436;DHT22;4255;48.730;9.156;2024-01-15T11:54:33;1.50;1.00
8436;DHT22;4255;48.730;9.156;2024-01-15T11:57:04;1.40;1.00
8436;DHT22;4255;48.730;9.156;2024-01-15T11:59:33;1.40;1.00
8436;DHT22;4255;48.730;9.156;2024-01-15T12:01:59;1.30;1.00
8436;DHT22;4255;48.730;9.156;2024-01-15T12:04:24;1.20;1.00
8436;DHT22;4255;48.730;9.156;2024-01-15T12:06:50;1.20;1.00
8436;DHT22;4255;48.730;9.156;2024-01-15T12:09:19;1.30;1.00
8436;DHT22;4255;48.730;9.156;2024-01-15T12:11:50;1.30;1.00
8436;DHT22;4255;48.730;9.156;2024-01-15T12:14:17;1.40;9.20
8436;DHT22;4255;48.730;9.156;2024-01-15T12:16:42;1.20;99.90
8436;DHT22;4255;48.730;9.156;2024-01-15T12:19:08;1.20;99.90
8436;DHT22;4255;48.730;9.156;2024-01-15T12:21:34;1.20;99.90
8436;DHT22;4255;48.730;9.156;2024-01-15T12:24:00;1.20;99.90
8436;DHT22;4255;48.730;9.156;2024-01-15T12:26:25;1.10;99.90
8436;DHT22;4255;48.730;9.156;2024-01-15T12:28:51;0.90;99.90
8436;DHT22;4255;48.730;9.156;2024-01-15T12:31:16;1.00;99.90
8436;DHT22;4255;48.730;9.156;2024-01-15T12:33:42;1.00;99.90
8436;DHT22;4255;48.730;9.156;2024-01-15T12:36:08;0.90;99.90
8436;DHT22;4255;48.730;9.156;2024-01-15T12:38:34;0.90;99.90
8436;DHT22;4255;48.730;9.156;2024-01-15T12:41:00;0.90;99.90
8436;DHT22;4255;48.730;9.156;2024-01-15T12:43:26;0.80;99.90
8436;DHT22;4255;48.730;9.156;2024-01-15T12:45:52;0.90;99.90
8436;DHT22;4255;48.730;9.156;2024-01-15T12:48:17;0.90;99.90
8436;DHT22;4255;48.730;9.156;2024-01-15T12:50:43;0.90;99.90
8436;DHT22;4255;48.730;9.156;2024-01-15T12:53:10;1.00;99.90
8436;DHT22;4255;48.730;9.156;2024-01-15T12:55:36;0.80;99.90
8436;DHT22;4255;48.730;9.156;2024-01-15T12:58:02;0.70;99.90
8436;DHT22;4255;48.730;9.156;2024-01-15T13:00:27;0.70;99.90
8436;DHT22;4255;48.730;9.156;2024-01-15T13:02:53;0.60;99.90
8436;DHT22;4255;48.730;9.156;2024-01-15T13:05:20;0.50;99.90
8436;DHT22;4255;48.730;9.156;2024-01-15T13:07:45;0.60;99.90
8436;DHT22;4255;48.730;9.156;2024-01-15T13:10:11;0.70;99.90
8436;DHT22;4255;48.730;9.156;2024-01-15T13:12:38;0.80;99.90
8436;DHT22;4255;48.730;9.156;2024-01-15T13:15:03;1.00;99.90
8436;DHT22;4255;48.730;9.156;2024-01-15T13:17:29;0.90;99.90
8436;DHT22;4255;48.730;9.156;2024-01-15T13:19:55;0.90;99.90
8436;DHT22;4255;48.730;9.156;2024-01-15T13:22:20;0.90;99.90
8436;DHT22;4255;48.730;9.156;2024-01-15T13:24:46;0.90;99.90
8436;DHT22;4255;48.730;9.156;2024-01-15T13:27:11;1.00;99.90
8436;DHT22;4255;48.730;9.156;2024-01-15T13:29:37;1.10;99.90
8436;DHT22;4255;48.730;9.156;2024-01-15T13:32:03;1.00;99.90
8436;DHT22;4255;48.730;9.156;2024-01-15T13:34:30;1.00;99.90
8436;DHT22;4255;48.730;9.156;2024-01-15T13:36:56;1.00;99.90
8436;DHT22;4255;48.730;9.156;2024-01-15T13:39:22;1.00;99.90
8436;DHT22;4255;48.730;9.156;2024-01-15T13:41:49;1.10;99.90
8436;DHT22;4255;48.730;9.156;2024-01-15T13:44:14;1.20;99.90
8436;DHT22;4255;48.730;9.156;2024-01-15T13:46:40;1.20;99.90
8436;DHT22;4255;48.730;9.156;2024-01-15T13:49:07;1.40;99.90
8436;DHT22;4255;48.730;9.156;2024-01-15T13:51:34;1.30;99.90
8436;DHT22;4255;48.730;9.156;2024-01-15T13:54:01;1.30;99.90
8436;DHT22;4255;48.730;9.156;2024-01-15T13:56:29;1.40;99.90
8436;DHT22;4255;48.730;9.156;2024-01-15T13:58:58;1.20;99.90
8436;DHT22;4255;48.730;9.156;2024-01-15T14:01:23;1.30;99.90
8436;DHT22;4255;48.730;9.156;2024-01-15T14:03:49;1.40;99.90
8436;DHT22;4255;48.730;9.156;2024-01-15T14:06:15;1.50;99.90
8436;DHT22;4255;48.730;9.156;2024-01-15T14:08:40;1.30;99.90
8436;DHT22;4255;48.730;9.156;2024-01-15T14:11:06;1.40;99.90
8436;DHT22;4255;48.730;9.156;2024-01-15T14:13:33;1.50;99.90
8436;DHT22;4255;48.730;9.156;2024-01-15T14:15:59;1.60;99.90
8436;DHT22;4255;48.730;9.156;2024-01-15T14:18:26;1.50;99.90
8436;DHT22;4255;48.730;9.156;2024-01-15T14:20:51;1.50;99.90
8436;DHT22;4255;48.730;9.156;2024-01-15T14:23:19;1.50;99.90
8436;DHT22;4255;48.730;9.156;2024-01-15T14:25:44;1.40;99.90
8436;DHT22;4255;48.730;9.156;2024-01-15T14:28:10;1.60;99.90
8436;DHT22;4255;48.730;9.156;2024-01-15T14:30:36;1.80;99.90
8436;DHT22;4255;48.730;9.156;2024-01-15T14:33:01;1.90;99.90
8436;DHT22;4255;48.730;9.156;2024-01-15T14:35:27;1.80;99.90
8436;DHT22;4255;48.730;9.156;2024-01-15T14:37:52;1.80;99.90
8436;DHT22;4255;48.730;9.156;2024-01-15T14:40:18;1.80;99.90
8436;DHT22;4255;48.730;9.156;2024-01-15T14:42:44;1.30;99.90
8436;DHT22;4255;48.730;9.156;2024-01-15T14:45:09;0.80;99.90
8436;DHT22;4255;48.730;9.156;2024-01-15T14:47:40;0.70;99.90
8436;DHT22;4255;48.730;9.156;2024-01-15T14:50:07;0.70;99.90
8436;DHT22;4255;48.730;9.156;2024-01-15T14:52:33;0.70;99.90
8436;DHT22;4255;48.730;9.156;2024-01-15T14:54:59;0.70;99.90
8436;DHT22;4255;48.730;9.156;2024-01-15T14:57:25;0.70;99.90
8436;DHT22;4255;48.730;9.156;2024-01-15T14:59:51;0.70;99.90
8436;DHT22;4255;48.730;9.156;2024-01-15T15:02:16;0.90;99.90
8436;DHT22;4255;48.730;9.156;2024-01-15T15:04:43;1.00;99.90
8436;DHT22;4255;48.730;9.156;2024-01-15T15:07:08;0.90;99.90
8436;DHT22;4255;48.730;9.156;2024-01-15T15:09:35;1.00;99.90
8436;DHT22;4255;48.730;9.156;2024-01-15T15:12:03;1.10;99.90
8436;DHT22;4255;48.730;9.156;2024-01-15T15:14:30;0.90;99.90
8436;DHT22;4255;48.730;9.156;2024-01-15T15:16:57;0.80;99.90
8436;DHT22;4255;48.730;9.156;2024-01-15T15:19:23;0.70;99.90
8436;DHT22;4255;48.730;9.156;2024-01-15T15:21:48;0.80;99.90
8436;DHT22;4255;48.730;9.156;2024-01-15T15:24:14;0.80;99.90
8436;DHT22;4255;48.730;9.156;2024-01-15T15:26:39;0.90;99.90
8436;DHT22;4255;48.730;9.156;2024-01-15T15:29:05;0.90;99.90
8436;DHT22;4255;48.730;9.156;2024-01-15T15:31:30;0.90;99.90
8436;DHT22;4255;48.730;9.156;2024-01-15T15:33:56;1.00;99.90
8436;DHT22;4255;48.730;9.156;2024-01-15T15:36:22;1.10;99.90
8436;DHT22;4255;48.730;9.156;2024-01-15T15:38:49;1.20;99.90
8436;DHT22;4255;48.730;9.156;2024-01-15T15:41:14;1.40;99.90
8436;DHT22;4255;48.730;9.156;2024-01-15T15:43:40;1.30;99.90
8436;DHT22;4255;48.730;9.156;2024-01-15T15:46:06;1.10;99.90
8436;DHT22;4255;48.730;9.156;2024-01-15T15:48:32;1.20;99.90
8436;DHT22;4255;48.730;9.156;2024-01-15T15:50:57;1.10;99.90
8436;DHT22;4255;48.730;9.156;2024-01-15T15:53:25;0.90;99.90
8436;DHT22;4255;48.730;9.156;2024-01-15T15:55:50;0.60;99.90
8436;DHT22;4255;48.730;9.156;2024-01-15T15:58:16;0.70;99.90
8436;DHT22;4255;48.730;9.156;2024-01-15T16:00:42;0.50;99.90
8436;DHT22;4255;48.730;9.156;2024-01-15T16:03:07;0.60;99.90
8436;DHT22;4255;48.730;9.156;2024-01-15T16:05:33;0.60;99.90
8436;DHT22;4255;48.730;9.156;2024-01-15T16:07:59;0.50;99.90
8436;DHT22;4255;48.730;9.156;2024-01-15T16:10:24;0.50;99.90
8436;DHT22;4255;48.730;9.156;2024-01-15T16:12:50;0.30;99.90
8436;DHT22;4255;48.730;9.156;2024-01-15T16:15:20;0.30;99.90
8436;DHT22;4255;48.730;9.156;2024-01-15T16:17:47;0.30;99.90
8436;DHT22;4255;48.730;9.156;2024-01-15T16:20:13;0.30;99.90